sensor_id;sensor_type;location;lat;lon;timestamp;P1;durP1;ratioP1;P2;durP2;ratioP2
65855;SDS011;52631;42.208;24.656;2022-08-03T00:01:54;7.60;;;2.83;;
65855;SDS011;52631;42.208;24.656;2022-08-03T00:04:19;6.95;;;3.00;;
65855;SDS011;52631;42.208;24.656;2022-08-03T00:06:45;5.88;;;2.97;;
65855;SDS011;52631;42.208;24.656;2022-08-03T00:09:10;5.38;;;3.00;;
65855;SDS011;52631;42.208;24.656;2022-08-03T00:11:36;5.25;;;2.83;;
65855;SDS011;52631;42.208;24.656;2022-08-03T00:14:02;4.78;;;2.80;;
65855;SDS011;52631;42.208;24.656;2022-08-03T00:16:29;4.95;;;2.53;;
65855;SDS011;52631;42.208;24.656;2022-08-03T00:18:54;4.05;;;2.58;;
65855;SDS011;52631;42.208;24.656;2022-08-03T00:21:20;4.68;;;3.35;;
65855;SDS011;52631;42.208;24.656;2022-08-03T00:23:45;5.72;;;2.97;;
65855;SDS011;52631;42.208;24.656;2022-08-03T00:26:11;5.15;;;3.20;;
65855;SDS011;52631;42.208;24.656;2022-08-03T00:28:36;5.22;;;2.95;;
65855;SDS011;52631;42.208;24.656;2022-08-03T00:31:01;4.25;;;3.20;;
65855;SDS011;52631;42.208;24.656;2022-08-03T00:33:27;5.53;;;2.60;;
65855;SDS011;52631;42.208;24.656;2022-08-03T00:35:52;4.65;;;2.85;;
65855;SDS011;52631;42.208;24.656;2022-08-03T00:38:18;4.18;;;2.53;;
65855;SDS011;52631;42.208;24.656;2022-08-03T00:40:44;4.30;;;3.20;;
65855;SDS011;52631;42.208;24.656;2022-08-03T00:43:10;4.78;;;2.75;;
65855;SDS011;52631;42.208;24.656;2022-08-03T00:45:36;5.68;;;2.75;;
65855;SDS011;52631;42.208;24.656;2022-08-03T00:48:03;5.90;;;2.88;;
65855;SDS011;52631;42.208;24.656;2022-08-03T00:50:30;6.07;;;3.00;;
65855;SDS011;52631;42.208;24.656;2022-08-03T00:52:59;3.90;;;2.90;;
65855;SDS011;52631;42.208;24.656;2022-08-03T00:55:25;4.65;;;3.17;;
65855;SDS011;52631;42.208;24.656;2022-08-03T00:57:50;5.05;;;3.00;;
65855;SDS011;52631;42.208;24.656;2022-08-03T01:00:17;5.25;;;2.72;;
65855;SDS011;52631;42.208;24.656;2022-08-03T01:02:47;3.92;;;2.83;;
65855;SDS011;52631;42.208;24.656;2022-08-03T01:05:12;4.85;;;2.80;;
65855;SDS011;52631;42.208;24.656;2022-08-03T01:07:45;4.00;;;2.50;;
65855;SDS011;52631;42.208;24.656;2022-08-03T01:19:08;4.50;;;2.55;;
65855;SDS011;52631;42.208;24.656;2022-08-03T01:21:33;5.38;;;2.67;;
65855;SDS011;52631;42.208;24.656;2022-08-03T01:32:41;4.85;;;2.47;;
65855;SDS011;52631;42.208;24.656;2022-08-03T01:35:13;4.35;;;2.60;;
65855;SDS011;52631;42.208;24.656;2022-08-03T01:38:04;5.05;;;2.53;;
65855;SDS011;52631;42.208;24.656;2022-08-03T01:40:28;4.43;;;2.72;;
65855;SDS011;52631;42.208;24.656;2022-08-03T01:42:56;4.30;;;2.60;;
65855;SDS011;52631;42.208;24.656;2022-08-03T01:45:23;3.15;;;2.40;;
65855;SDS011;52631;42.208;24.656;2022-08-03T01:47:49;3.67;;;2.38;;
65855;SDS011;52631;42.208;24.656;2022-08-03T01:50:17;4.85;;;2.83;;
65855;SDS011;52631;42.208;24.656;2022-08-03T01:52:45;4.63;;;3.10;;
65855;SDS011;52631;42.208;24.656;2022-08-03T01:55:12;4.30;;;2.55;;
65855;SDS011;52631;42.208;24.656;2022-08-03T01:57:38;5.10;;;2.90;;
65855;SDS011;52631;42.208;24.656;2022-08-03T02:00:05;3.42;;;2.38;;
65855;SDS011;52631;42.208;24.656;2022-08-03T02:02:33;4.13;;;2.97;;
65855;SDS011;52631;42.208;24.656;2022-08-03T02:05:00;3.83;;;3.00;;
65855;SDS011;52631;42.208;24.656;2022-08-03T02:07:29;4.20;;;2.70;;
65855;SDS011;52631;42.208;24.656;2022-08-03T02:09:56;4.07;;;2.70;;
65855;SDS011;52631;42.208;24.656;2022-08-03T02:12:23;5.25;;;2.75;;
65855;SDS011;52631;42.208;24.656;2022-08-03T02:14:49;4.68;;;2.90;;
65855;SDS011;52631;42.208;24.656;2022-08-03T02:17:15;5.90;;;3.10;;
65855;SDS011;52631;42.208;24.656;2022-08-03T02:19:41;3.90;;;2.67;;
65855;SDS011;52631;42.208;24.656;2022-08-03T02:22:09;5.50;;;3.13;;
65855;SDS011;52631;42.208;24.656;2022-08-03T02:24:35;3.97;;;2.88;;
65855;SDS011;52631;42.208;24.656;2022-08-03T02:27:00;5.47;;;3.10;;
65855;SDS011;52631;42.208;24.656;2022-08-03T02:29:30;5.35;;;3.15;;
65855;SDS011;52631;42.208;24.656;2022-08-03T02:31:58;4.20;;;2.80;;
65855;SDS011;52631;42.208;24.656;2022-08-03T02:34:24;4.32;;;3.08;;
65855;SDS011;52631;42.208;24.656;2022-08-03T02:36:51;3.95;;;3.03;;
65855;SDS011;52631;42.208;24.656;2022-08-03T02:39:18;4.90;;;2.80;;
65855;SDS011;52631;42.208;24.656;2022-08-03T02:41:46;5.43;;;2.85;;
65855;SDS011;52631;42.208;24.656;2022-08-03T02:44:14;4.63;;;2.70;;
65855;SDS011;52631;42.208;24.656;2022-08-03T02:46:43;4.82;;;3.10;;
65855;SDS011;52631;42.208;24.656;2022-08-03T02:49:11;4.43;;;2.65;;
65855;SDS011;52631;42.208;24.656;2022-08-03T02:51:37;4.35;;;2.85;;
65855;SDS011;52631;42.208;24.656;2022-08-03T02:54:04;5.13;;;2.72;;
65855;SDS011;52631;42.208;24.656;2022-08-03T02:56:30;10.77;;;3.07;;
65855;SDS011;52631;42.208;24.656;2022-08-03T02:58:57;4.90;;;2.85;;
65855;SDS011;52631;42.208;24.656;2022-08-03T03:01:23;4.40;;;3.00;;
65855;SDS011;52631;42.208;24.656;2022-08-03T03:03:49;4.28;;;3.00;;
65855;SDS011;52631;42.208;24.656;2022-08-03T03:06:15;5.38;;;3.45;;
65855;SDS011;52631;42.208;24.656;2022-08-03T03:08:41;6.90;;;3.78;;
65855;SDS011;52631;42.208;24.656;2022-08-03T03:11:07;7.40;;;3.85;;
65855;SDS011;52631;42.208;24.656;2022-08-03T03:13:34;5.63;;;3.22;;
65855;SDS011;52631;42.208;24.656;2022-08-03T03:16:01;5.10;;;3.35;;
65855;SDS011;52631;42.208;24.656;2022-08-03T03:18:30;4.70;;;3.05;;
65855;SDS011;52631;42.208;24.656;2022-08-03T03:20:56;5.85;;;3.17;;
65855;SDS011;52631;42.208;24.656;2022-08-03T03:23:22;6.18;;;4.07;;
65855;SDS011;52631;42.208;24.656;2022-08-03T03:25:49;5.65;;;3.85;;
65855;SDS011;52631;42.208;24.656;2022-08-03T03:28:15;6.70;;;3.35;;
65855;SDS011;52631;42.208;24.656;2022-08-03T03:30:41;5.00;;;3.30;;
65855;SDS011;52631;42.208;24.656;2022-08-03T03:33:07;6.05;;;3.60;;
65855;SDS011;52631;42.208;24.656;2022-08-03T03:35:32;4.97;;;3.03;;
65855;SDS011;52631;42.208;24.656;2022-08-03T03:37:58;7.03;;;3.10;;
65855;SDS011;52631;42.208;24.656;2022-08-03T03:40:24;4.80;;;3.40;;
65855;SDS011;52631;42.208;24.656;2022-08-03T03:42:51;5.22;;;3.30;;
65855;SDS011;52631;42.208;24.656;2022-08-03T03:45:16;5.80;;;3.30;;
65855;SDS011;52631;42.208;24.656;2022-08-03T03:47:42;5.18;;;3.20;;
65855;SDS011;52631;42.208;24.656;2022-08-03T03:50:07;4.90;;;3.22;;
65855;SDS011;52631;42.208;24.656;2022-08-03T03:52:34;4.32;;;3.05;;
65855;SDS011;52631;42.208;24.656;2022-08-03T03:55:00;8.82;;;3.53;;
65855;SDS011;52631;42.208;24.656;2022-08-03T03:57:26;4.45;;;3.10;;
65855;SDS011;52631;42.208;24.656;2022-08-03T03:59:52;6.88;;;3.65;;
65855;SDS011;52631;42.208;24.656;2022-08-03T04:02:17;8.55;;;3.45;;
65855;SDS011;52631;42.208;24.656;2022-08-03T04:04:42;7.80;;;3.63;;
65855;SDS011;52631;42.208;24.656;2022-08-03T04:07:26;6.10;;;3.33;;
65855;SDS011;52631;42.208;24.656;2022-08-03T04:10:20;7.47;;;3.42;;
65855;SDS011;52631;42.208;24.656;2022-08-03T04:13:08;5.32;;;3.33;;
65855;SDS011;52631;42.208;24.656;2022-08-03T04:15:35;6.22;;;2.75;;
65855;SDS011;52631;42.208;24.656;2022-08-03T04:18:02;4.95;;;3.00;;
65855;SDS011;52631;42.208;24.656;2022-08-03T04:20:29;7.35;;;3.40;;
65855;SDS011;52631;42.208;24.656;2022-08-03T04:22:57;6.05;;;3.40;;
65855;SDS011;52631;42.208;24.656;2022-08-03T04:25:24;4.40;;;2.75;;
65855;SDS011;52631;42.208;24.656;2022-08-03T04:27:52;4.82;;;3.20;;
65855;SDS011;52631;42.208;24.656;2022-08-03T04:30:19;6.50;;;3.20;;
65855;SDS011;52631;42.208;24.656;2022-08-03T04:32:46;5.57;;;3.40;;
65855;SDS011;52631;42.208;24.656;2022-08-03T04:35:16;6.20;;;3.20;;
65855;SDS011;52631;42.208;24.656;2022-08-03T04:37:45;6.05;;;2.97;;
65855;SDS011;52631;42.208;24.656;2022-08-03T04:40:13;6.75;;;3.20;;
65855;SDS011;52631;42.208;24.656;2022-08-03T04:42:43;4.70;;;3.53;;
65855;SDS011;52631;42.208;24.656;2022-08-03T04:45:10;4.32;;;3.22;;
65855;SDS011;52631;42.208;24.656;2022-08-03T04:47:36;5.18;;;3.40;;
65855;SDS011;52631;42.208;24.656;2022-08-03T04:50:02;6.75;;;3.20;;
65855;SDS011;52631;42.208;24.656;2022-08-03T04:52:29;5.65;;;3.22;;
65855;SDS011;52631;42.208;24.656;2022-08-03T04:54:54;6.22;;;3.25;;
65855;SDS011;52631;42.208;24.656;2022-08-03T04:57:20;6.80;;;3.60;;
65855;SDS011;52631;42.208;24.656;2022-08-03T04:59:46;4.55;;;2.92;;
65855;SDS011;52631;42.208;24.656;2022-08-03T05:02:13;6.65;;;3.78;;
65855;SDS011;52631;42.208;24.656;2022-08-03T05:04:40;15.30;;;6.15;;
65855;SDS011;52631;42.208;24.656;2022-08-03T05:07:10;11.70;;;3.83;;
65855;SDS011;52631;42.208;24.656;2022-08-03T05:09:36;4.97;;;3.22;;
65855;SDS011;52631;42.208;24.656;2022-08-03T05:12:02;10.77;;;3.72;;
65855;SDS011;52631;42.208;24.656;2022-08-03T05:14:28;5.03;;;3.15;;
65855;SDS011;52631;42.208;24.656;2022-08-03T05:16:54;5.25;;;3.75;;
65855;SDS011;52631;42.208;24.656;2022-08-03T05:19:19;6.53;;;3.30;;
65855;SDS011;52631;42.208;24.656;2022-08-03T05:21:45;4.05;;;3.10;;
65855;SDS011;52631;42.208;24.656;2022-08-03T05:24:10;6.00;;;3.17;;
65855;SDS011;52631;42.208;24.656;2022-08-03T05:26:36;4.90;;;3.00;;
65855;SDS011;52631;42.208;24.656;2022-08-03T05:29:01;5.72;;;2.90;;
65855;SDS011;52631;42.208;24.656;2022-08-03T05:31:27;7.13;;;3.20;;
65855;SDS011;52631;42.208;24.656;2022-08-03T05:33:52;5.85;;;3.10;;
65855;SDS011;52631;42.208;24.656;2022-08-03T05:36:18;5.72;;;3.15;;
65855;SDS011;52631;42.208;24.656;2022-08-03T05:38:43;5.68;;;3.00;;
65855;SDS011;52631;42.208;24.656;2022-08-03T05:41:09;7.20;;;3.25;;
65855;SDS011;52631;42.208;24.656;2022-08-03T05:43:34;4.82;;;3.10;;
65855;SDS011;52631;42.208;24.656;2022-08-03T05:46:00;7.22;;;3.85;;
65855;SDS011;52631;42.208;24.656;2022-08-03T05:48:25;5.18;;;3.50;;
65855;SDS011;52631;42.208;24.656;2022-08-03T05:50:51;8.35;;;3.38;;
65855;SDS011;52631;42.208;24.656;2022-08-03T05:53:16;6.47;;;3.47;;
65855;SDS011;52631;42.208;24.656;2022-08-03T05:55:42;4.55;;;3.22;;
65855;SDS011;52631;42.208;24.656;2022-08-03T05:58:07;6.05;;;2.90;;
65855;SDS011;52631;42.208;24.656;2022-08-03T06:00:32;5.00;;;2.67;;
65855;SDS011;52631;42.208;24.656;2022-08-03T06:02:58;4.72;;;2.63;;
65855;SDS011;52631;42.208;24.656;2022-08-03T06:05:24;5.22;;;2.67;;
65855;SDS011;52631;42.208;24.656;2022-08-03T06:07:52;3.97;;;2.72;;
65855;SDS011;52631;42.208;24.656;2022-08-03T06:10:18;4.70;;;2.92;;
65855;SDS011;52631;42.208;24.656;2022-08-03T06:12:44;5.82;;;2.90;;
65855;SDS011;52631;42.208;24.656;2022-08-03T06:15:11;8.95;;;2.80;;
65855;SDS011;52631;42.208;24.656;2022-08-03T06:17:44;9.13;;;2.88;;
65855;SDS011;52631;42.208;24.656;2022-08-03T06:20:14;4.30;;;2.67;;
65855;SDS011;52631;42.208;24.656;2022-08-03T06:22:44;3.90;;;2.53;;
65855;SDS011;52631;42.208;24.656;2022-08-03T06:25:10;4.65;;;2.50;;
65855;SDS011;52631;42.208;24.656;2022-08-03T06:27:35;4.40;;;2.53;;
65855;SDS011;52631;42.208;24.656;2022-08-03T06:30:04;3.55;;;2.25;;
65855;SDS011;52631;42.208;24.656;2022-08-03T06:32:30;5.47;;;2.50;;
65855;SDS011;52631;42.208;24.656;2022-08-03T06:34:56;6.18;;;2.72;;
65855;SDS011;52631;42.208;24.656;2022-08-03T06:37:21;3.78;;;2.35;;
65855;SDS011;52631;42.208;24.656;2022-08-03T06:39:48;4.72;;;2.30;;
65855;SDS011;52631;42.208;24.656;2022-08-03T06:42:14;3.78;;;2.42;;
65855;SDS011;52631;42.208;24.656;2022-08-03T06:44:39;5.72;;;2.55;;
65855;SDS011;52631;42.208;24.656;2022-08-03T06:47:05;3.42;;;2.30;;
65855;SDS011;52631;42.208;24.656;2022-08-03T06:49:30;4.57;;;2.45;;
65855;SDS011;52631;42.208;24.656;2022-08-03T06:51:56;3.00;;;2.20;;
65855;SDS011;52631;42.208;24.656;2022-08-03T06:54:21;4.22;;;2.45;;
65855;SDS011;52631;42.208;24.656;2022-08-03T06:56:48;7.82;;;2.35;;
65855;SDS011;52631;42.208;24.656;2022-08-03T06:59:14;3.95;;;2.30;;
65855;SDS011;52631;42.208;24.656;2022-08-03T07:01:39;3.83;;;2.30;;
65855;SDS011;52631;42.208;24.656;2022-08-03T07:04:05;3.97;;;2.60;;
65855;SDS011;52631;42.208;24.656;2022-08-03T07:06:30;4.18;;;2.22;;
65855;SDS011;52631;42.208;24.656;2022-08-03T07:08:56;5.40;;;2.20;;
65855;SDS011;52631;42.208;24.656;2022-08-03T07:11:21;4.88;;;2.38;;
65855;SDS011;52631;42.208;24.656;2022-08-03T07:13:47;3.03;;;2.03;;
65855;SDS011;52631;42.208;24.656;2022-08-03T07:16:13;5.45;;;2.85;;
65855;SDS011;52631;42.208;24.656;2022-08-03T07:18:38;4.97;;;2.63;;
65855;SDS011;52631;42.208;24.656;2022-08-03T07:21:04;3.85;;;2.30;;
65855;SDS011;52631;42.208;24.656;2022-08-03T07:23:31;4.13;;;2.33;;
65855;SDS011;52631;42.208;24.656;2022-08-03T07:25:57;5.00;;;2.35;;
65855;SDS011;52631;42.208;24.656;2022-08-03T07:28:22;4.40;;;2.47;;
65855;SDS011;52631;42.208;24.656;2022-08-03T07:30:48;5.68;;;2.60;;
65855;SDS011;52631;42.208;24.656;2022-08-03T07:33:13;4.57;;;2.40;;
65855;SDS011;52631;42.208;24.656;2022-08-03T07:35:39;6.57;;;3.17;;
65855;SDS011;52631;42.208;24.656;2022-08-03T07:38:04;4.28;;;2.80;;
65855;SDS011;52631;42.208;24.656;2022-08-03T07:40:30;4.40;;;3.08;;
65855;SDS011;52631;42.208;24.656;2022-08-03T07:42:55;8.93;;;3.50;;
65855;SDS011;52631;42.208;24.656;2022-08-03T07:45:22;3.65;;;2.55;;
65855;SDS011;52631;42.208;24.656;2022-08-03T07:47:48;24.02;;;4.25;;
65855;SDS011;52631;42.208;24.656;2022-08-03T07:50:13;6.35;;;4.07;;
65855;SDS011;52631;42.208;24.656;2022-08-03T07:52:39;5.00;;;3.70;;
65855;SDS011;52631;42.208;24.656;2022-08-03T07:55:14;6.47;;;3.50;;
65855;SDS011;52631;42.208;24.656;2022-08-03T07:57:40;4.82;;;3.13;;
65855;SDS011;52631;42.208;24.656;2022-08-03T08:00:10;5.70;;;3.67;;
65855;SDS011;52631;42.208;24.656;2022-08-03T08:02:41;6.15;;;3.33;;
65855;SDS011;52631;42.208;24.656;2022-08-03T08:05:07;5.00;;;3.33;;
65855;SDS011;52631;42.208;24.656;2022-08-03T08:07:35;6.57;;;3.40;;
65855;SDS011;52631;42.208;24.656;2022-08-03T08:10:02;6.05;;;3.38;;
65855;SDS011;52631;42.208;24.656;2022-08-03T08:12:29;7.40;;;3.42;;
65855;SDS011;52631;42.208;24.656;2022-08-03T08:14:55;6.10;;;3.10;;
65855;SDS011;52631;42.208;24.656;2022-08-03T08:17:20;10.40;;;3.60;;
65855;SDS011;52631;42.208;24.656;2022-08-03T08:19:46;4.80;;;3.70;;
65855;SDS011;52631;42.208;24.656;2022-08-03T08:22:11;10.57;;;4.20;;
65855;SDS011;52631;42.208;24.656;2022-08-03T08:24:37;6.57;;;3.97;;
65855;SDS011;52631;42.208;24.656;2022-08-03T08:27:02;7.68;;;4.03;;
65855;SDS011;52631;42.208;24.656;2022-08-03T08:29:28;5.82;;;3.72;;
65855;SDS011;52631;42.208;24.656;2022-08-03T08:31:53;6.13;;;3.38;;
65855;SDS011;52631;42.208;24.656;2022-08-03T08:34:20;6.70;;;3.80;;
65855;SDS011;52631;42.208;24.656;2022-08-03T08:36:46;7.18;;;3.70;;
65855;SDS011;52631;42.208;24.656;2022-08-03T08:39:11;5.57;;;3.65;;
65855;SDS011;52631;42.208;24.656;2022-08-03T08:41:37;9.02;;;4.25;;
65855;SDS011;52631;42.208;24.656;2022-08-03T08:44:02;6.90;;;4.13;;
65855;SDS011;52631;42.208;24.656;2022-08-03T08:46:31;4.53;;;3.38;;
65855;SDS011;52631;42.208;24.656;2022-08-03T08:48:57;9.57;;;3.83;;
65855;SDS011;52631;42.208;24.656;2022-08-03T08:51:26;9.77;;;4.20;;
65855;SDS011;52631;42.208;24.656;2022-08-03T08:53:54;10.20;;;4.18;;
65855;SDS011;52631;42.208;24.656;2022-08-03T08:56:21;4.82;;;3.58;;
65855;SDS011;52631;42.208;24.656;2022-08-03T08:58:53;5.13;;;3.72;;
65855;SDS011;52631;42.208;24.656;2022-08-03T09:01:22;5.85;;;3.65;;
65855;SDS011;52631;42.208;24.656;2022-08-03T09:03:48;6.45;;;4.07;;
65855;SDS011;52631;42.208;24.656;2022-08-03T09:06:14;6.75;;;4.07;;
65855;SDS011;52631;42.208;24.656;2022-08-03T09:08:40;6.82;;;3.90;;
65855;SDS011;52631;42.208;24.656;2022-08-03T09:11:05;7.00;;;4.40;;
65855;SDS011;52631;42.208;24.656;2022-08-03T09:13:34;6.25;;;4.30;;
65855;SDS011;52631;42.208;24.656;2022-08-03T09:18:38;5.10;;;4.00;;
65855;SDS011;52631;42.208;24.656;2022-08-03T09:21:18;11.60;;;4.20;;
65855;SDS011;52631;42.208;24.656;2022-08-03T09:23:50;6.00;;;4.00;;
65855;SDS011;52631;42.208;24.656;2022-08-03T09:26:22;9.27;;;4.40;;
65855;SDS011;52631;42.208;24.656;2022-08-03T09:31:28;5.22;;;4.00;;
65855;SDS011;52631;42.208;24.656;2022-08-03T09:34:02;5.97;;;3.78;;
65855;SDS011;52631;42.208;24.656;2022-08-03T09:36:35;6.55;;;3.97;;
65855;SDS011;52631;42.208;24.656;2022-08-03T09:39:09;5.63;;;3.67;;
65855;SDS011;52631;42.208;24.656;2022-08-03T09:41:36;5.60;;;3.42;;
65855;SDS011;52631;42.208;24.656;2022-08-03T09:44:03;4.00;;;2.90;;
65855;SDS011;52631;42.208;24.656;2022-08-03T09:46:28;5.93;;;3.15;;
65855;SDS011;52631;42.208;24.656;2022-08-03T09:49:11;4.60;;;2.92;;
65855;SDS011;52631;42.208;24.656;2022-08-03T09:51:37;7.00;;;3.47;;
65855;SDS011;52631;42.208;24.656;2022-08-03T09:54:03;5.15;;;3.17;;
65855;SDS011;52631;42.208;24.656;2022-08-03T09:56:36;4.75;;;3.17;;
65855;SDS011;52631;42.208;24.656;2022-08-03T09:59:05;6.82;;;3.80;;
65855;SDS011;52631;42.208;24.656;2022-08-03T10:01:31;5.95;;;3.53;;
65855;SDS011;52631;42.208;24.656;2022-08-03T10:03:58;8.38;;;3.80;;
65855;SDS011;52631;42.208;24.656;2022-08-03T10:06:24;6.32;;;3.28;;
65855;SDS011;52631;42.208;24.656;2022-08-03T10:11:48;5.78;;;3.72;;
65855;SDS011;52631;42.208;24.656;2022-08-03T10:14:14;6.43;;;3.67;;
65855;SDS011;52631;42.208;24.656;2022-08-03T10:16:43;5.28;;;3.28;;
65855;SDS011;52631;42.208;24.656;2022-08-03T10:19:09;4.00;;;3.08;;
65855;SDS011;52631;42.208;24.656;2022-08-03T10:21:36;3.58;;;3.08;;
65855;SDS011;52631;42.208;24.656;2022-08-03T10:24:04;6.95;;;3.20;;
65855;SDS011;52631;42.208;24.656;2022-08-03T10:26:34;4.90;;;2.75;;
65855;SDS011;52631;42.208;24.656;2022-08-03T10:29:03;6.20;;;3.05;;
65855;SDS011;52631;42.208;24.656;2022-08-03T10:31:38;4.45;;;3.00;;
65855;SDS011;52631;42.208;24.656;2022-08-03T10:34:10;4.75;;;3.40;;
65855;SDS011;52631;42.208;24.656;2022-08-03T10:36:38;5.30;;;3.40;;
65855;SDS011;52631;42.208;24.656;2022-08-03T10:39:04;4.50;;;3.50;;
65855;SDS011;52631;42.208;24.656;2022-08-03T10:41:31;3.30;;;2.92;;
65855;SDS011;52631;42.208;24.656;2022-08-03T10:43:58;5.03;;;3.33;;
65855;SDS011;52631;42.208;24.656;2022-08-03T10:46:28;5.45;;;3.00;;
65855;SDS011;52631;42.208;24.656;2022-08-03T10:48:54;5.10;;;3.47;;
65855;SDS011;52631;42.208;24.656;2022-08-03T10:51:20;4.30;;;3.10;;
65855;SDS011;52631;42.208;24.656;2022-08-03T10:53:46;3.58;;;2.92;;
65855;SDS011;52631;42.208;24.656;2022-08-03T11:02:15;7.28;;;3.05;;
65855;SDS011;52631;42.208;24.656;2022-08-03T11:04:41;3.83;;;2.70;;
65855;SDS011;52631;42.208;24.656;2022-08-03T11:09:43;6.32;;;3.15;;
65855;SDS011;52631;42.208;24.656;2022-08-03T11:12:22;5.50;;;2.58;;
65855;SDS011;52631;42.208;24.656;2022-08-03T11:14:48;6.07;;;2.70;;
65855;SDS011;52631;42.208;24.656;2022-08-03T11:17:13;3.97;;;2.60;;
65855;SDS011;52631;42.208;24.656;2022-08-03T11:19:45;5.20;;;2.60;;
65855;SDS011;52631;42.208;24.656;2022-08-03T11:22:12;4.72;;;2.92;;
65855;SDS011;52631;42.208;24.656;2022-08-03T11:27:16;6.32;;;2.80;;
65855;SDS011;52631;42.208;24.656;2022-08-03T11:48:35;4.30;;;2.83;;
65855;SDS011;52631;42.208;24.656;2022-08-03T11:51:03;9.25;;;2.92;;
65855;SDS011;52631;42.208;24.656;2022-08-03T11:53:32;3.88;;;2.88;;
65855;SDS011;52631;42.208;24.656;2022-08-03T11:55:59;4.07;;;2.63;;
65855;SDS011;52631;42.208;24.656;2022-08-03T11:58:25;5.97;;;2.70;;
65855;SDS011;52631;42.208;24.656;2022-08-03T12:00:52;3.42;;;2.33;;
65855;SDS011;52631;42.208;24.656;2022-08-03T12:03:30;5.43;;;2.80;;
65855;SDS011;52631;42.208;24.656;2022-08-03T12:05:56;4.38;;;2.70;;
65855;SDS011;52631;42.208;24.656;2022-08-03T12:10:50;5.53;;;2.60;;
65855;SDS011;52631;42.208;24.656;2022-08-03T12:13:16;8.27;;;2.60;;
65855;SDS011;52631;42.208;24.656;2022-08-03T12:15:42;4.03;;;2.50;;
65855;SDS011;52631;42.208;24.656;2022-08-03T12:18:12;6.95;;;2.88;;
65855;SDS011;52631;42.208;24.656;2022-08-03T12:20:40;3.03;;;2.13;;
65855;SDS011;52631;42.208;24.656;2022-08-03T12:23:05;3.13;;;2.15;;
65855;SDS011;52631;42.208;24.656;2022-08-03T12:25:32;4.85;;;2.13;;
65855;SDS011;52631;42.208;24.656;2022-08-03T12:28:12;3.40;;;2.17;;
65855;SDS011;52631;42.208;24.656;2022-08-03T12:30:43;7.85;;;2.40;;
65855;SDS011;52631;42.208;24.656;2022-08-03T12:35:44;3.00;;;2.17;;
65855;SDS011;52631;42.208;24.656;2022-08-03T12:38:17;3.10;;;2.38;;
65855;SDS011;52631;42.208;24.656;2022-08-03T12:40:44;4.40;;;2.13;;
65855;SDS011;52631;42.208;24.656;2022-08-03T12:43:13;4.50;;;2.40;;
65855;SDS011;52631;42.208;24.656;2022-08-03T12:45:39;5.32;;;2.30;;
65855;SDS011;52631;42.208;24.656;2022-08-03T12:48:07;3.00;;;2.03;;
65855;SDS011;52631;42.208;24.656;2022-08-03T12:50:35;5.72;;;2.15;;
65855;SDS011;52631;42.208;24.656;2022-08-03T12:53:03;5.30;;;2.30;;
65855;SDS011;52631;42.208;24.656;2022-08-03T12:55:30;3.42;;;2.60;;
65855;SDS011;52631;42.208;24.656;2022-08-03T12:58:02;4.97;;;3.35;;
65855;SDS011;52631;42.208;24.656;2022-08-03T13:00:29;4.40;;;3.50;;
65855;SDS011;52631;42.208;24.656;2022-08-03T13:02:58;4.53;;;3.10;;
65855;SDS011;52631;42.208;24.656;2022-08-03T13:05:28;4.88;;;3.50;;
65855;SDS011;52631;42.208;24.656;2022-08-03T13:07:54;4.95;;;3.20;;
65855;SDS011;52631;42.208;24.656;2022-08-03T13:10:30;4.43;;;2.72;;
65855;SDS011;52631;42.208;24.656;2022-08-03T13:12:56;4.70;;;3.00;;
65855;SDS011;52631;42.208;24.656;2022-08-03T13:15:24;4.80;;;2.83;;
65855;SDS011;52631;42.208;24.656;2022-08-03T13:17:52;4.10;;;2.90;;
65855;SDS011;52631;42.208;24.656;2022-08-03T13:20:18;3.80;;;2.90;;
65855;SDS011;52631;42.208;24.656;2022-08-03T13:22:45;5.47;;;3.03;;
65855;SDS011;52631;42.208;24.656;2022-08-03T13:25:11;4.20;;;2.72;;
65855;SDS011;52631;42.208;24.656;2022-08-03T13:27:38;4.22;;;2.92;;
65855;SDS011;52631;42.208;24.656;2022-08-03T13:30:03;4.53;;;3.10;;
65855;SDS011;52631;42.208;24.656;2022-08-03T13:32:29;3.83;;;2.75;;
65855;SDS011;52631;42.208;24.656;2022-08-03T13:34:55;5.30;;;3.05;;
65855;SDS011;52631;42.208;24.656;2022-08-03T13:37:20;5.95;;;2.65;;
65855;SDS011;52631;42.208;24.656;2022-08-03T13:39:47;9.50;;;3.83;;
65855;SDS011;52631;42.208;24.656;2022-08-03T13:42:13;3.90;;;2.80;;
65855;SDS011;52631;42.208;24.656;2022-08-03T13:44:38;4.45;;;2.90;;
65855;SDS011;52631;42.208;24.656;2022-08-03T13:47:04;5.88;;;2.60;;
65855;SDS011;52631;42.208;24.656;2022-08-03T13:49:29;4.28;;;2.85;;
65855;SDS011;52631;42.208;24.656;2022-08-03T13:51:55;7.07;;;2.80;;
65855;SDS011;52631;42.208;24.656;2022-08-03T13:54:21;4.88;;;2.90;;
65855;SDS011;52631;42.208;24.656;2022-08-03T13:56:47;4.70;;;3.10;;
65855;SDS011;52631;42.208;24.656;2022-08-03T13:59:22;5.30;;;2.70;;
65855;SDS011;52631;42.208;24.656;2022-08-03T14:01:49;5.38;;;3.13;;
65855;SDS011;52631;42.208;24.656;2022-08-03T14:04:16;3.95;;;2.80;;
65855;SDS011;52631;42.208;24.656;2022-08-03T14:06:42;4.63;;;2.72;;
65855;SDS011;52631;42.208;24.656;2022-08-03T14:09:11;4.43;;;2.75;;
65855;SDS011;52631;42.208;24.656;2022-08-03T14:11:37;5.05;;;2.60;;
65855;SDS011;52631;42.208;24.656;2022-08-03T14:14:06;5.00;;;2.70;;
65855;SDS011;52631;42.208;24.656;2022-08-03T14:16:31;3.25;;;2.33;;
65855;SDS011;52631;42.208;24.656;2022-08-03T14:18:57;4.25;;;2.70;;
65855;SDS011;52631;42.208;24.656;2022-08-03T14:21:22;12.13;;;3.28;;
65855;SDS011;52631;42.208;24.656;2022-08-03T14:23:48;8.88;;;3.35;;
65855;SDS011;52631;42.208;24.656;2022-08-03T14:26:13;7.55;;;2.90;;
65855;SDS011;52631;42.208;24.656;2022-08-03T14:28:39;5.82;;;2.45;;
65855;SDS011;52631;42.208;24.656;2022-08-03T14:31:05;3.80;;;2.60;;
65855;SDS011;52631;42.208;24.656;2022-08-03T14:33:31;4.82;;;2.53;;
65855;SDS011;52631;42.208;24.656;2022-08-03T14:35:56;4.88;;;2.60;;
65855;SDS011;52631;42.208;24.656;2022-08-03T14:38:22;4.20;;;2.28;;
65855;SDS011;52631;42.208;24.656;2022-08-03T14:40:48;6.93;;;3.08;;
65855;SDS011;52631;42.208;24.656;2022-08-03T14:43:14;5.65;;;2.70;;
65855;SDS011;52631;42.208;24.656;2022-08-03T14:45:45;5.38;;;2.95;;
65855;SDS011;52631;42.208;24.656;2022-08-03T14:48:11;6.88;;;3.20;;
65855;SDS011;52631;42.208;24.656;2022-08-03T14:50:37;5.82;;;3.28;;
65855;SDS011;52631;42.208;24.656;2022-08-03T14:53:02;8.15;;;2.92;;
65855;SDS011;52631;42.208;24.656;2022-08-03T14:55:28;5.88;;;3.22;;
65855;SDS011;52631;42.208;24.656;2022-08-03T14:57:53;6.05;;;3.00;;
65855;SDS011;52631;42.208;24.656;2022-08-03T15:00:19;10.68;;;3.58;;
65855;SDS011;52631;42.208;24.656;2022-08-03T15:02:44;5.28;;;2.80;;
65855;SDS011;52631;42.208;24.656;2022-08-03T15:05:10;6.38;;;3.28;;
65855;SDS011;52631;42.208;24.656;2022-08-03T15:07:37;4.43;;;3.10;;
65855;SDS011;52631;42.208;24.656;2022-08-03T15:10:02;7.25;;;3.00;;
65855;SDS011;52631;42.208;24.656;2022-08-03T15:12:29;24.75;;;6.00;;
65855;SDS011;52631;42.208;24.656;2022-08-03T15:14:54;27.02;;;5.40;;
65855;SDS011;52631;42.208;24.656;2022-08-03T15:17:20;4.18;;;2.83;;
65855;SDS011;52631;42.208;24.656;2022-08-03T15:19:45;5.82;;;3.33;;
65855;SDS011;52631;42.208;24.656;2022-08-03T15:22:11;4.32;;;2.90;;
65855;SDS011;52631;42.208;24.656;2022-08-03T15:24:39;3.88;;;3.03;;
65855;SDS011;52631;42.208;24.656;2022-08-03T15:27:05;4.20;;;3.00;;
65855;SDS011;52631;42.208;24.656;2022-08-03T15:29:30;9.70;;;3.00;;
65855;SDS011;52631;42.208;24.656;2022-08-03T15:31:56;4.20;;;2.92;;
65855;SDS011;52631;42.208;24.656;2022-08-03T15:34:21;5.95;;;2.97;;